メインページ
METAR-TAF:

METAR-TAF

空港 :

女満別空港

女満別, 日本

緯度: 43-53N, 経度: 144-10E, 海抜: 33m

現時点の気象観測

当レポートは54分前の08:00(UTC)に作成
南/南東の風 2kt
気温 -10°C
湿度 79%
気圧 1019 hPa
視程10km以上
高度2000ftの雲はほとんどない

METAR: RJCM 130800Z 16002KT 9999 FEW020 M10/M13 Q1019

時間: 17:54 (08:54 UTC)

予報

当レポートは3時間41分前の05:13(UTC)に作成
予報は13日の 06時(UTC)から 14日の 12時(UTC)まで有効
北/北西の風 5kt
視程10km以上
高度2000ftの雲はほとんどない
高度4000ftの千切れ雲あり
13日の 09時(UTC)から 13日の 11時(UTC)まで徐々に
南/南西の風 5kt
14日の 03時(UTC)から 14日の 06時(UTC)まで徐々に
北/北西の風 5kt
14日の 09時(UTC)から 14日の 12時(UTC)まで一時的に
視程: 1500m
高度500ftの雲はほとんどない
高度800ftの千切れ雲あり
弱いにわか雪

TAF: RJCM 130513Z 1306/1412 33005KT 9999 FEW020 BKN040 BECMG 1309/1311 20005KT BECMG 1403/1406 33005KT TEMPO 1409/1412 1500 -SHSN FEW005 BKN008

4,000以上の空港の気象観測と天気予報(METAR報とTAF報)

利用可能な観測所は地図上に黄色い丸と赤い丸で示す。

丸の上にカーソルを重ねると観測所名を参照できる。

次にクリックすると気象観測と天気予報を参照できる。

マップの切り替え:黒色「×」印の緑ボタンをクリックして拡大、「-」印の緑ボタンをクリックして縮小、緑色の三角印をクリックして隣りの地図に切り替え


METAR-TAF: